Time;durP1;ratioP1;P1;durP2;ratioP2;P2;SDS_P1;SDS_P2;PMS_P1;PMS_P2;Temp;Humidity;BMP_temperature;BMP_pressure;BME280_temperature;BME280_humidity;BME280_pressure;Samples;Min_cycle;Max_cycle;Signal;HPM_P1;HPM_P2
2022/04/11 00:01:21;;;;;;;6.65;2.35;;;;;;;6.05;49.23;98941.94;4441160;32;20113;-90
2022/04/11 00:03:46;;;;;;;6.28;2.30;;;;;;;6.10;49.04;98942.59;4455375;32;20491;-91
2022/04/11 00:06:12;;;;;;;6.10;2.28;;;;;;;6.32;48.27;98934.00;4455503;32;20089;-89
2022/04/11 00:08:38;;;;;;;7.18;2.30;;;;;;;6.32;48.20;98940.13;4455516;32;20365;-89
2022/04/11 00:11:04;;;;;;;9.20;2.37;;;;;;;6.30;48.22;98936.72;4455771;32;20105;-86
2022/04/11 00:13:30;;;;;;;8.15;2.60;;;;;;;6.19;48.54;98938.84;4441112;32;20101;-93
2022/04/11 00:15:55;;;;;;;5.75;2.15;;;;;;;6.37;48.36;98938.19;4455226;32;20112;-85
2022/04/11 00:18:21;;;;;;;6.07;2.00;;;;;;;6.40;48.31;98945.09;4455343;32;20096;-91
2022/04/11 00:20:50;;;;;;;9.38;2.28;;;;;;;6.37;48.30;98943.41;4455656;32;20113;-92
2022/04/11 00:23:16;;;;;;;8.75;2.50;;;;;;;6.38;48.36;98950.38;4455793;32;20155;-93
2022/04/11 00:25:41;;;;;;;7.35;2.40;;;;;;;6.46;48.24;98950.09;4441516;32;20342;-91
2022/04/11 00:28:07;;;;;;;6.35;2.30;;;;;;;6.61;47.94;98952.19;4455755;32;20202;-86
2022/04/11 00:30:33;;;;;;;7.62;2.33;;;;;;;6.20;48.86;98957.09;4455026;32;20101;-89
2022/04/11 00:32:58;;;;;;;7.40;2.37;;;;;;;6.42;48.34;98961.59;4456102;32;20085;-93
2022/04/11 00:35:23;;;;;;;7.95;2.17;;;;;;;6.26;48.81;98953.44;4455622;32;20405;-95
2022/04/11 00:37:49;;;;;;;7.30;2.35;;;;;;;6.50;48.32;98960.41;4442451;32;20158;-90
2022/04/11 00:40:14;;;;;;;6.95;2.28;;;;;;;6.65;47.89;98968.62;4455053;32;20172;-91
2022/04/11 00:42:40;;;;;;;8.93;2.35;;;;;;;6.57;48.11;98958.44;4455938;32;20353;-88
2022/04/11 00:45:06;;;;;;;6.22;2.20;;;;;;;6.56;48.16;98963.72;4441353;32;20089;-91
2022/04/11 00:47:32;;;;;;;6.78;2.65;;;;;;;6.35;48.44;98960.94;4444647;32;20101;-89
2022/04/11 00:50:08;;;;;;;5.75;2.20;;;;;;;6.28;48.60;98969.94;4454677;32;20123;-89
2022/04/11 00:52:37;;;;;;;7.32;2.40;;;;;;;6.40;48.21;98963.41;4450637;32;20711;-86
2022/04/11 00:55:04;;;;;;;8.82;2.47;;;;;;;6.19;48.50;98967.62;4454121;32;20259;-94
2022/04/11 00:57:30;;;;;;;8.95;2.37;;;;;;;6.25;48.63;98977.88;4447894;32;20085;-95
2022/04/11 00:59:55;;;;;;;7.45;2.35;;;;;;;6.37;48.49;98971.34;4458623;32;20164;-95
2022/04/11 01:02:21;;;;;;;6.25;2.30;;;;;;;6.31;48.68;98967.19;4459227;32;20448;-95
2022/04/11 01:04:46;;;;;;;7.25;2.17;;;;;;;6.09;49.02;98972.31;4457157;32;20147;-96
2022/04/11 01:07:12;;;;;;;7.03;2.10;;;;;;;6.29;48.77;98976.84;4453114;32;20122;-96
2022/04/11 01:09:37;;;;;;;8.45;2.40;;;;;;;6.23;48.79;98971.84;4437137;32;20113;-95
2022/04/11 01:12:03;;;;;;;7.40;2.33;;;;;;;6.38;48.59;98965.22;4451945;32;20147;-93
2022/04/11 01:14:28;;;;;;;7.82;2.30;;;;;;;6.25;48.92;98963.00;4455489;32;20075;-94
2022/04/11 01:16:57;;;;;;;7.95;2.67;;;;;;;6.18;49.47;98963.28;4459719;32;20089;-95
2022/04/11 01:19:22;;;;;;;6.45;2.15;;;;;;;6.26;49.18;98964.75;4443237;32;20093;-95
2022/04/11 01:21:48;;;;;;;6.60;2.40;;;;;;;6.38;48.92;98963.47;4456042;32;20077;-96
2022/04/11 01:24:17;;;;;;;7.95;2.50;;;;;;;6.38;48.95;98967.84;4441628;32;20432;-91
2022/04/11 01:26:44;;;;;;;8.43;2.60;;;;;;;6.17;49.52;98966.81;4445666;32;20049;-90
2022/04/11 01:29:09;;;;;;;6.47;2.30;;;;;;;6.20;49.46;98970.19;4436452;26;20139;-92
2022/04/11 01:31:35;;;;;;;7.05;2.28;;;;;;;6.26;49.35;98969.12;4424149;32;20094;-90
2022/04/11 01:34:00;;;;;;;7.78;2.78;;;;;;;6.43;49.04;98966.78;4420985;32;20106;-90
2022/04/11 01:36:26;;;;;;;9.68;2.70;;;;;;;6.23;49.40;98961.38;4422255;32;20114;-91
2022/04/11 01:38:52;;;;;;;7.30;2.45;;;;;;;6.25;49.65;98970.88;4421337;32;20101;-89
2022/04/11 01:41:19;;;;;;;6.07;2.37;;;;;;;6.33;49.46;98964.53;4423215;32;20101;-91
2022/04/11 01:43:45;;;;;;;9.52;2.80;;;;;;;5.79;50.83;98976.72;4423314;32;20523;-89
2022/04/11 01:46:11;;;;;;;9.63;2.83;;;;;;;5.77;50.96;98975.94;4423665;32;20089;-84
2022/04/11 01:48:36;;;;;;;9.75;3.28;;;;;;;5.70;51.46;98981.34;4423588;32;20110;-86
2022/04/11 01:51:02;;;;;;;7.18;2.72;;;;;;;5.87;51.34;98978.22;4423490;32;20157;-85
2022/04/11 01:53:28;;;;;;;7.25;2.40;;;;;;;5.96;50.96;98971.84;4423299;32;20101;-86
2022/04/11 01:55:53;;;;;;;7.45;2.62;;;;;;;5.93;50.91;98976.28;4423531;32;20105;-85
2022/04/11 01:58:19;;;;;;;6.90;2.50;;;;;;;6.17;50.69;98969.44;4422088;32;20114;-85
2022/04/11 02:00:44;;;;;;;7.72;2.72;;;;;;;5.98;51.30;98985.72;4422302;32;20133;-87
2022/04/11 02:03:11;;;;;;;9.90;2.83;;;;;;;6.16;50.87;98980.78;4421097;32;20137;-89
2022/04/11 02:05:37;;;;;;;8.48;3.10;;;;;;;6.25;50.55;98989.19;4421827;32;20158;-85
2022/04/11 02:08:04;;;;;;;8.73;3.42;;;;;;;5.64;52.32;98997.22;4422955;32;20472;-86
2022/04/11 02:10:30;;;;;;;8.73;3.17;;;;;;;5.45;53.36;99006.53;4421204;32;20822;-86
2022/04/11 02:12:56;;;;;;;9.88;3.78;;;;;;;5.25;54.14;99001.91;4423085;32;20134;-84
2022/04/11 02:15:22;;;;;;;10.75;3.53;;;;;;;5.65;53.20;99000.69;4424266;32;20073;-85
2022/04/11 02:17:49;;;;;;;10.32;3.33;;;;;;;5.61;53.35;98999.94;4424335;32;20138;-87
2022/04/11 02:20:15;;;;;;;10.00;3.67;;;;;;;5.45;53.90;98994.31;4424109;32;20514;-86
2022/04/11 02:22:49;;;;;;;8.43;3.25;;;;;;;5.61;53.41;98992.09;4423041;32;20137;-86
2022/04/11 02:25:15;;;;;;;8.40;3.25;;;;;;;5.57;53.60;98997.47;4422994;32;20094;-86
2022/04/11 02:27:41;;;;;;;9.77;3.40;;;;;;;5.18;54.60;98992.56;4424066;32;20105;-87
2022/04/11 02:30:08;;;;;;;9.30;3.20;;;;;;;5.42;54.26;98991.78;4422677;32;20097;-86
2022/04/11 02:32:33;;;;;;;9.60;3.55;;;;;;;5.17;54.77;98993.44;4424070;32;20093;-87
2022/04/11 02:34:59;;;;;;;12.50;3.47;;;;;;;5.44;54.09;99000.44;4423809;32;20452;-86
2022/04/11 02:37:24;;;;;;;10.23;3.95;;;;;;;5.38;54.49;99000.63;4422592;32;20150;-87
2022/04/11 02:39:49;;;;;;;8.18;3.15;;;;;;;5.47;54.13;98999.50;4423452;32;20117;-88
2022/04/11 02:42:22;;;;;;;9.00;3.15;;;;;;;5.35;54.52;99000.75;4422499;32;20082;-89
2022/04/11 02:44:48;;;;;;;9.23;3.33;;;;;;;5.49;54.10;99002.94;4423793;32;20108;-88
2022/04/11 02:47:13;;;;;;;8.82;3.50;;;;;;;5.15;54.84;99000.47;4422824;32;20101;-88
2022/04/11 02:49:39;;;;;;;8.95;3.30;;;;;;;5.38;54.24;98994.56;4423931;32;20133;-88
2022/04/11 02:52:04;;;;;;;9.75;3.30;;;;;;;5.60;53.42;99011.31;4423812;32;20086;-88
2022/04/11 02:54:30;;;;;;;9.52;3.47;;;;;;;5.16;54.74;99000.44;4423627;32;20078;-87
2022/04/11 02:56:55;;;;;;;9.65;3.62;;;;;;;5.32;54.46;99008.66;4423699;32;20133;-88
2022/04/11 02:59:20;;;;;;;8.82;3.42;;;;;;;5.30;54.65;99008.69;4423577;32;20112;-87
2022/04/11 03:01:46;;;;;;;9.38;3.25;;;;;;;5.34;54.39;99012.06;4423395;32;20372;-87
2022/04/11 03:04:11;;;;;;;9.00;3.17;;;;;;;4.85;55.71;99018.72;4422373;32;20131;-87
2022/04/11 03:06:37;;;;;;;11.27;3.62;;;;;;;5.01;55.46;99017.37;4423493;32;20090;-87
2022/04/11 03:09:02;;;;;;;9.32;3.40;;;;;;;5.18;55.19;99018.66;4423542;32;20155;-88
2022/04/11 03:11:28;;;;;;;10.05;3.35;;;;;;;4.99;55.30;99013.97;4422918;32;20120;-88
2022/04/11 03:13:53;;;;;;;8.20;3.33;;;;;;;4.96;55.30;99021.00;4423325;32;20144;-87
2022/04/11 03:16:19;;;;;;;10.15;3.05;;;;;;;5.28;54.29;99020.09;4424162;32;20098;-88
2022/04/11 03:18:44;;;;;;;10.32;3.55;;;;;;;5.21;54.42;99023.78;4425805;32;20089;-90
2022/04/11 03:21:09;;;;;;;10.15;3.55;;;;;;;5.25;54.40;99030.63;4425535;32;20151;-89
2022/04/11 03:23:35;;;;;;;9.93;3.33;;;;;;;5.17;54.73;99033.47;4424572;32;20146;-90
2022/04/11 03:26:00;;;;;;;9.50;3.65;;;;;;;5.21;54.78;99031.63;4425504;32;20106;-89
2022/04/11 03:28:26;;;;;;;10.18;3.55;;;;;;;5.18;54.81;99031.72;4427764;32;20085;-88
2022/04/11 03:30:51;;;;;;;9.15;3.20;;;;;;;5.34;54.53;99035.59;4441006;32;20100;-88
2022/04/11 03:33:16;;;;;;;10.95;3.85;;;;;;;5.30;54.79;99034.81;4440936;32;20077;-88
2022/04/11 03:35:42;;;;;;;9.88;3.78;;;;;;;5.39;54.67;99038.94;4440909;32;20157;-88
2022/04/11 03:38:07;;;;;;;11.25;3.97;;;;;;;5.46;54.38;99047.44;4440852;32;20094;-89
2022/04/11 03:40:33;;;;;;;9.25;3.60;;;;;;;5.27;55.11;99049.72;4440672;32;20081;-89
2022/04/11 03:42:58;;;;;;;10.05;3.90;;;;;;;5.27;55.13;99047.09;4440922;32;20089;-86
2022/04/11 03:45:23;;;;;;;9.68;3.62;;;;;;;5.32;54.94;99055.69;4426451;32;20081;-87
2022/04/11 03:47:49;;;;;;;9.73;3.37;;;;;;;5.16;55.44;99063.09;4440743;32;20148;-87
2022/04/11 03:50:14;;;;;;;10.38;3.53;;;;;;;5.23;55.42;99066.38;4440790;32;20101;-88
2022/04/11 03:52:40;;;;;;;10.38;3.75;;;;;;;5.39;54.97;99058.94;4426833;32;20123;-89
2022/04/11 03:55:06;;;;;;;11.20;3.58;;;;;;;5.48;54.75;99061.31;4440824;32;20384;-88
2022/04/11 03:57:32;;;;;;;10.23;3.62;;;;;;;5.61;54.37;99057.44;4426735;32;20120;-89
2022/04/11 03:59:58;;;;;;;8.70;3.40;;;;;;;5.44;54.74;99067.53;4426739;32;20086;-88
2022/04/11 04:02:23;;;;;;;8.45;3.05;;;;;;;5.09;56.06;99072.00;4440813;32;20145;-90
2022/04/11 04:04:49;;;;;;;9.48;3.33;;;;;;;5.09;56.42;99072.84;4426861;32;20104;-88
2022/04/11 04:07:14;;;;;;;9.43;3.12;;;;;;;5.11;56.34;99064.97;4440724;32;20080;-90
2022/04/11 04:09:39;;;;;;;10.55;3.87;;;;;;;5.36;55.60;99074.75;4440774;32;20119;-88
2022/04/11 04:12:05;;;;;;;9.13;3.25;;;;;;;5.40;55.40;99069.38;4440571;32;20155;-88
2022/04/11 04:14:31;;;;;;;9.95;3.42;;;;;;;5.13;56.08;99084.91;4440736;32;20116;-88
2022/04/11 04:16:56;;;;;;;10.95;3.75;;;;;;;5.25;55.83;99086.34;4440467;32;20483;-88
2022/04/11 04:19:22;;;;;;;8.90;3.08;;;;;;;5.13;56.08;99086.69;4440454;32;20074;-90
2022/04/11 04:21:47;;;;;;;10.40;3.58;;;;;;;5.33;55.64;99086.09;4440630;32;20086;-88
2022/04/11 04:24:13;;;;;;;8.82;3.20;;;;;;;5.59;54.93;99092.34;4440680;32;20085;-88
2022/04/11 04:26:38;;;;;;;10.57;2.92;;;;;;;5.65;54.79;99095.63;4426194;32;20128;-88
2022/04/11 04:29:04;;;;;;;10.13;3.15;;;;;;;5.76;54.43;99097.09;4426416;32;20070;-89
2022/04/11 04:31:30;;;;;;;10.45;3.33;;;;;;;5.60;54.86;99102.78;4440518;32;20092;-87
2022/04/11 04:33:55;;;;;;;8.50;3.12;;;;;;;5.81;54.56;99105.62;4440662;32;20338;-87
2022/04/11 04:36:20;;;;;;;9.07;3.20;;;;;;;6.07;53.96;99107.50;4440460;32;20081;-88
2022/04/11 04:38:46;;;;;;;9.50;3.20;;;;;;;6.02;54.08;99105.00;4426533;32;20132;-89
2022/04/11 04:41:11;;;;;;;8.25;2.97;;;;;;;6.20;53.68;99113.19;4440517;32;20073;-87
2022/04/11 04:43:37;;;;;;;9.77;3.22;;;;;;;6.32;53.48;99115.44;4426450;32;20144;-88
2022/04/11 04:46:02;;;;;;;9.77;3.20;;;;;;;6.52;52.80;99112.16;4440587;32;20101;-86
2022/04/11 04:48:28;;;;;;;9.60;3.08;;;;;;;6.46;52.77;99114.97;4426800;32;20157;-88
2022/04/11 04:50:54;;;;;;;8.05;2.50;;;;;;;6.60;52.42;99111.91;4426309;32;20115;-87
2022/04/11 04:53:19;;;;;;;8.90;3.33;;;;;;;6.66;52.21;99112.56;4440287;32;20097;-89
2022/04/11 04:55:44;;;;;;;9.50;2.95;;;;;;;6.57;52.50;99119.88;4426555;32;20073;-88
2022/04/11 04:58:10;;;;;;;8.07;2.90;;;;;;;6.62;52.41;99117.94;4440692;32;20139;-88
2022/04/11 05:00:35;;;;;;;11.30;3.33;;;;;;;6.89;51.75;99113.53;4426746;32;20139;-88
2022/04/11 05:03:01;;;;;;;10.65;3.00;;;;;;;6.94;51.76;99116.87;4440621;32;20101;-89
2022/04/11 05:05:26;;;;;;;10.55;3.25;;;;;;;6.95;51.50;99118.56;4440600;32;20085;-88
2022/04/11 05:07:52;;;;;;;9.13;3.00;;;;;;;7.16;51.32;99126.59;4440484;32;20086;-86
2022/04/11 05:10:17;;;;;;;9.98;2.95;;;;;;;7.48;50.17;99118.44;4440475;32;20105;-89
2022/04/11 05:12:46;;;;;;;7.20;2.70;;;;;;;7.29;50.32;99118.22;4440588;32;20090;-88
2022/04/11 05:15:12;;;;;;;8.65;2.72;;;;;;;7.53;50.10;99115.63;4440622;32;20399;-87
2022/04/11 05:17:37;;;;;;;8.13;2.40;;;;;;;7.48;50.14;99118.44;4440506;32;20086;-89
2022/04/11 05:20:07;;;;;;;8.23;2.70;;;;;;;7.48;49.64;99125.44;4440361;32;20103;-88
2022/04/11 05:22:33;;;;;;;10.27;2.67;;;;;;;7.76;49.35;99109.53;4426099;32;20378;-85
2022/04/11 05:24:58;;;;;;;8.90;2.28;;;;;;;7.94;48.52;99112.34;4440293;32;20150;-87
2022/04/11 05:27:24;;;;;;;8.90;2.53;;;;;;;8.17;47.98;99114.97;4440085;32;20145;-87
2022/04/11 05:29:49;;;;;;;9.82;2.78;;;;;;;8.42;47.18;99120.12;4440047;32;20425;-87
2022/04/11 05:32:15;;;;;;;7.32;2.28;;;;;;;8.49;46.99;99110.19;4440105;32;20094;-91
2022/04/11 05:34:40;;;;;;;9.70;2.62;;;;;;;8.25;47.22;99107.63;4440012;32;20468;-87
2022/04/11 05:37:06;;;;;;;8.98;2.72;;;;;;;8.26;47.39;99119.81;4440247;32;20178;-89
2022/04/11 05:39:32;;;;;;;8.48;2.78;;;;;;;8.34;47.14;99109.00;4438931;32;20085;-89
2022/04/11 05:41:57;;;;;;;8.10;2.62;;;;;;;8.68;46.43;99110.31;4440039;32;20105;-90
2022/04/11 05:44:23;;;;;;;9.18;2.97;;;;;;;8.82;46.01;99109.72;4440226;32;20093;-88
2022/04/11 05:46:52;;;;;;;8.57;2.70;;;;;;;8.87;45.87;99117.44;4439926;32;20433;-88
2022/04/11 05:49:21;;;;;;;9.25;2.80;;;;;;;8.74;45.87;99112.66;4440075;32;20106;-93
2022/04/11 05:51:47;;;;;;;8.38;2.80;;;;;;;8.35;46.65;99115.13;4440418;32;20105;-94
2022/04/11 05:54:13;;;;;;;7.50;2.90;;;;;;;8.46;46.36;99120.84;4440040;32;20104;-91
2022/04/11 05:56:38;;;;;;;7.53;2.60;;;;;;;8.31;46.95;99127.53;4439526;32;20105;-89
2022/04/11 05:59:04;;;;;;;7.78;2.53;;;;;;;8.49;46.99;99125.09;4439678;32;20078;-89
2022/04/11 06:01:32;;;;;;;9.45;2.87;;;;;;;8.58;46.39;99130.00;4439823;32;20109;-90
2022/04/11 06:03:57;;;;;;;9.48;2.50;;;;;;;8.69;46.01;99114.63;4439756;32;20151;-92
2022/04/11 06:06:23;;;;;;;8.45;2.80;;;;;;;8.88;45.65;99117.34;4439739;32;20106;-89
2022/04/11 06:08:48;;;;;;;7.85;2.50;;;;;;;9.16;45.08;99117.03;4425786;32;20142;-89
2022/04/11 06:11:14;;;;;;;6.62;2.60;;;;;;;9.27;44.76;99120.94;4439758;32;20153;-90
2022/04/11 06:13:43;;;;;;;9.23;2.83;;;;;;;9.39;44.33;99108.13;4425722;32;20132;-87
2022/04/11 06:16:09;;;;;;;8.38;2.75;;;;;;;9.68;44.39;99111.22;4439648;32;20097;-84
2022/04/11 06:18:34;;;;;;;9.20;3.30;;;;;;;9.64;43.87;99107.03;4439739;32;20112;-86
2022/04/11 06:21:00;;;;;;;9.27;3.15;;;;;;;9.59;43.81;99117.72;4439521;32;20105;-87
2022/04/11 06:23:25;;;;;;;10.05;2.92;;;;;;;9.45;43.94;99118.34;4439345;32;20125;-87
2022/04/11 06:25:51;;;;;;;11.02;3.03;;;;;;;9.64;43.88;99118.38;4439471;32;20089;-86
2022/04/11 06:28:16;;;;;;;10.90;2.85;;;;;;;9.35;44.22;99122.31;4439216;32;20441;-86
2022/04/11 06:30:41;;;;;;;9.30;3.17;;;;;;;9.58;43.69;99123.94;4425095;32;20132;-86
2022/04/11 06:33:07;;;;;;;10.98;3.10;;;;;;;9.76;43.72;99116.97;4439079;32;20143;-86
2022/04/11 06:35:32;;;;;;;9.30;3.15;;;;;;;9.54;43.70;99121.50;4438937;32;20343;-86
2022/04/11 06:37:58;;;;;;;8.25;2.75;;;;;;;9.63;43.94;99116.66;4438904;32;20094;-86
2022/04/11 06:40:23;;;;;;;8.73;2.80;;;;;;;9.86;43.20;99116.56;4438832;32;20093;-87
2022/04/11 06:42:48;;;;;;;8.02;2.90;;;;;;;9.90;43.12;99123.38;4438835;32;20403;-86
2022/04/11 06:45:14;;;;;;;10.65;2.75;;;;;;;10.07;42.78;99112.91;4424725;32;20090;-85
2022/04/11 06:47:40;;;;;;;7.80;2.83;;;;;;;10.22;42.76;99111.34;4424559;32;20102;-86
2022/04/11 06:50:06;;;;;;;9.30;3.03;;;;;;;10.40;42.21;99113.09;4438154;32;20094;-86
2022/04/11 06:52:31;;;;;;;9.85;2.90;;;;;;;10.47;41.98;99118.94;4440824;32;20112;-87
2022/04/11 06:54:57;;;;;;;8.23;2.85;;;;;;;10.45;41.79;99114.66;4426740;32;20120;-86
2022/04/11 06:57:24;;;;;;;8.68;2.58;;;;;;;10.61;41.88;99118.25;4413414;32;20116;-86
2022/04/11 06:59:50;;;;;;;9.20;3.25;;;;;;;10.60;41.29;99116.53;4441217;32;20380;-90
2022/04/11 07:02:15;;;;;;;10.52;2.92;;;;;;;10.58;41.52;99126.28;4426163;32;20121;-86
2022/04/11 07:04:41;;;;;;;9.40;2.90;;;;;;;10.54;41.60;99130.00;4440016;32;20111;-86
2022/04/11 07:07:07;;;;;;;11.12;3.50;;;;;;;10.38;41.58;99128.12;4426121;32;20102;-87
2022/04/11 07:09:32;;;;;;;8.90;3.08;;;;;;;10.50;41.60;99131.09;4440576;32;20101;-87
2022/04/11 07:11:58;;;;;;;10.60;3.62;;;;;;;10.42;41.93;99132.31;4438970;32;20108;-86
2022/04/11 07:14:23;;;;;;;8.57;3.05;;;;;;;10.39;41.93;99135.13;4439792;32;20103;-84
2022/04/11 07:16:51;;;;;;;10.15;3.20;;;;;;;10.59;41.21;99142.03;4439702;32;20073;-86
2022/04/11 07:19:17;;;;;;;8.82;2.95;;;;;;;10.54;41.77;99135.28;4426859;32;20140;-87
2022/04/11 07:21:42;;;;;;;9.52;2.97;;;;;;;10.59;41.51;99131.50;4439880;32;20101;-87
2022/04/11 07:24:08;;;;;;;10.52;3.42;;;;;;;10.80;40.88;99139.28;4439647;32;20097;-87
2022/04/11 07:26:33;;;;;;;10.98;3.40;;;;;;;10.54;41.32;99140.56;4425911;32;20132;-90
2022/04/11 07:28:58;;;;;;;12.23;3.65;;;;;;;10.31;42.37;99129.34;4427008;32;20163;-86
2022/04/11 07:31:27;;;;;;;9.70;3.35;;;;;;;10.65;41.78;99138.25;4424820;32;20134;-82
2022/04/11 07:33:52;;;;;;;8.80;3.00;;;;;;;10.65;41.52;99126.88;4440094;32;20213;-83
2022/04/11 07:36:18;;;;;;;11.57;2.95;;;;;;;10.97;40.82;99128.75;4440657;32;20081;-84
2022/04/11 07:38:43;;;;;;;10.52;3.10;;;;;;;10.87;40.97;99127.47;4440782;32;20101;-82
2022/04/11 07:41:09;;;;;;;10.32;2.80;;;;;;;10.91;40.91;99126.38;4439902;32;20093;-89
2022/04/11 07:43:34;;;;;;;8.57;3.25;;;;;;;10.55;41.56;99134.38;4440858;32;20142;-91
2022/04/11 07:46:01;;;;;;;9.40;3.08;;;;;;;10.62;41.21;99160.34;4424986;32;20137;-85
2022/04/11 07:48:26;;;;;;;7.95;2.95;;;;;;;10.59;41.13;99122.75;4439538;32;20660;-92
2022/04/11 07:50:52;;;;;;;9.32;3.37;;;;;;;10.54;41.28;99138.75;4424834;32;20105;-86
2022/04/11 07:53:17;;;;;;;8.05;3.03;;;;;;;10.73;41.49;99143.12;4441017;32;20085;-88
2022/04/11 07:55:44;;;;;;;8.30;2.50;;;;;;;10.78;40.97;99135.88;4426190;32;20081;-91
2022/04/11 07:58:09;;;;;;;8.13;2.72;;;;;;;10.28;40.36;99139.16;4418959;32;20113;-91
2022/04/11 08:00:35;;;;;;;7.25;2.45;;;;;;;10.34;40.47;99144.16;4450242;32;20133;-88
2022/04/11 08:03:00;;;;;;;8.23;2.90;;;;;;;10.16;40.79;99145.81;4428661;32;20101;-88
2022/04/11 08:05:26;;;;;;;9.23;3.00;;;;;;;10.23;41.03;99134.09;4431926;32;20128;-90
2022/04/11 08:07:52;;;;;;;9.30;2.97;;;;;;;10.51;41.26;99135.44;4423841;32;20541;-88
2022/04/11 08:10:17;;;;;;;6.50;2.50;;;;;;;10.66;39.94;99139.94;4439540;32;20086;-88
2022/04/11 08:12:59;;;;;;;7.80;2.58;;;;;;;10.54;39.92;99135.28;4425272;32;20100;-89
2022/04/11 08:15:26;;;;;;;7.80;2.53;;;;;;;10.33;40.22;99140.66;4424765;32;20191;-89
2022/04/11 08:17:53;;;;;;;8.57;2.87;;;;;;;10.31;40.49;99147.78;4437436;32;20172;-87
2022/04/11 08:20:19;;;;;;;8.40;3.10;;;;;;;10.27;40.58;99127.75;4439385;32;20500;-88
2022/04/11 08:22:45;;;;;;;8.68;2.78;;;;;;;10.32;40.97;99131.06;4425328;32;20077;-88
2022/04/11 08:25:11;;;;;;;7.50;2.50;;;;;;;10.70;39.92;99136.25;4439537;32;20535;-88
2022/04/11 08:27:36;;;;;;;10.23;3.15;;;;;;;10.81;39.77;99135.69;4402423;32;20527;-90
2022/04/11 08:30:06;;;;;;;8.23;2.62;;;;;;;10.86;39.54;99131.06;4408414;32;20153;-86
2022/04/11 08:32:42;;;;;;;10.60;3.10;;;;;;;10.94;38.73;99117.50;4424573;32;20467;-87
2022/04/11 08:35:11;;;;;;;7.82;2.53;;;;;;;10.08;39.46;99137.44;4423842;32;20116;-82
2022/04/11 08:37:42;;;;;;;7.68;2.30;;;;;;;10.84;39.23;99119.75;4421895;32;20133;-85
2022/04/11 08:40:10;;;;;;;7.95;2.60;;;;;;;10.83;38.50;99128.56;4421540;32;20112;-85
2022/04/11 08:42:38;;;;;;;7.18;2.53;;;;;;;11.05;38.19;99128.34;4420629;32;20410;-85
2022/04/11 08:45:03;;;;;;;7.55;2.60;;;;;;;11.06;38.36;99129.19;4408504;32;20130;-84
2022/04/11 08:47:29;;;;;;;9.18;2.83;;;;;;;11.38;38.00;99114.34;4423655;32;20400;-85
2022/04/11 08:49:55;;;;;;;9.73;3.53;;;;;;;11.23;38.50;99137.09;4423163;32;20116;-85
2022/04/11 08:52:21;;;;;;;6.78;2.53;;;;;;;11.34;38.56;99115.44;4422506;32;20442;-86
2022/04/11 08:54:46;;;;;;;10.13;3.00;;;;;;;11.30;38.52;99114.75;4423610;32;20113;-84
2022/04/11 08:57:12;;;;;;;7.40;2.65;;;;;;;11.23;38.39;99112.50;4423635;32;20121;-85
2022/04/11 08:59:37;;;;;;;8.45;2.80;;;;;;;11.40;37.57;99125.66;4413863;32;20113;-86
2022/04/11 09:02:10;;;;;;;6.90;2.28;;;;;;;11.06;38.24;99123.91;4409559;32;20112;-86
2022/04/11 09:04:50;;;;;;;9.95;3.00;;;;;;;11.46;38.04;99109.50;4410447;32;20094;-85
2022/04/11 09:07:16;;;;;;;8.70;2.97;;;;;;;11.63;37.46;99128.84;4423018;32;20480;-85
2022/04/11 09:09:41;;;;;;;8.25;3.05;;;;;;;11.18;38.16;99118.88;4422125;32;20113;-84
2022/04/11 09:12:14;;;;;;;7.57;3.20;;;;;;;11.21;38.69;99129.25;4420359;32;20187;-83
2022/04/11 09:14:41;;;;;;;7.28;2.60;;;;;;;10.87;38.43;99121.34;4418622;32;20633;-86
2022/04/11 09:17:06;;;;;;;7.90;2.55;;;;;;;11.31;37.94;99126.16;4423728;32;20148;-85
2022/04/11 09:19:32;;;;;;;9.48;2.60;;;;;;;11.41;37.39;99124.72;4416467;32;20377;-84
2022/04/11 09:21:58;;;;;;;5.90;2.40;;;;;;;11.40;36.19;99121.25;4424392;32;20345;-84
2022/04/11 09:24:26;;;;;;;8.85;3.30;;;;;;;11.56;36.93;99121.28;4423830;32;20090;-82
2022/04/11 09:26:55;;;;;;;8.05;2.80;;;;;;;11.56;37.37;99136.25;4424378;32;20094;-90
2022/04/11 09:29:22;;;;;;;8.98;3.12;;;;;;;11.74;37.27;99127.38;4432814;32;20093;-88
2022/04/11 09:31:47;;;;;;;6.78;2.60;;;;;;;11.85;37.06;99137.34;4425737;32;20097;-89
2022/04/11 09:34:14;;;;;;;8.48;3.30;;;;;;;11.54;37.17;99123.13;4435969;32;20081;-88
2022/04/11 09:36:54;;;;;;;8.07;3.17;;;;;;;11.65;37.64;99133.13;4423920;32;20105;-91
2022/04/11 09:39:21;;;;;;;8.27;2.95;;;;;;;11.56;37.28;99130.97;4424858;32;20153;-94
2022/04/11 09:41:47;;;;;;;8.85;3.10;;;;;;;11.63;36.26;99126.22;4425185;32;20088;-91
2022/04/11 09:44:25;;;;;;;8.07;2.95;;;;;;;11.88;36.09;99117.81;4424968;32;20100;-90
2022/04/11 09:46:59;;;;;;;8.60;2.60;;;;;;;11.88;36.45;99118.69;4410702;32;20747;-89
2022/04/11 09:49:24;;;;;;;8.30;3.05;;;;;;;12.21;35.88;99123.09;4428099;32;87427;-93
2022/04/11 09:52:12;;;;;;;8.35;2.47;;;;;;;12.23;35.58;99115.06;4455217;32;20097;-90
2022/04/11 09:54:49;;;;;;;7.60;2.42;;;;;;;12.02;33.45;99117.13;4455089;32;20122;-90
2022/04/11 09:57:16;;;;;;;7.00;2.67;;;;;;;12.07;33.24;99122.97;4455382;32;20153;-90
2022/04/11 09:59:43;;;;;;;9.05;3.28;;;;;;;12.17;33.63;99116.28;4455483;32;20097;-91
2022/04/11 10:02:10;;;;;;;7.40;2.70;;;;;;;11.99;34.48;99113.72;4441348;32;20471;-90
2022/04/11 10:04:39;;;;;;;8.23;3.00;;;;;;;11.75;34.96;99123.78;4455531;32;20103;-87
2022/04/11 10:07:08;;;;;;;8.05;2.70;;;;;;;12.18;34.25;99112.69;4454991;32;20460;-93
2022/04/11 10:09:33;;;;;;;8.68;2.80;;;;;;;11.87;33.63;99121.41;4441091;32;20127;-85
2022/04/11 10:12:01;;;;;;;7.28;2.33;;;;;;;12.02;32.80;99112.69;4455239;32;20096;-84
2022/04/11 10:14:27;;;;;;;6.28;2.28;;;;;;;12.22;33.54;99103.63;4426408;32;20085;-84
2022/04/11 10:16:57;;;;;;;8.80;2.83;;;;;;;12.23;33.19;99120.34;4438447;32;20433;-83
2022/04/11 10:19:24;;;;;;;8.27;2.85;;;;;;;11.99;33.57;99110.19;4439122;32;20170;-84
2022/04/11 10:21:51;;;;;;;5.57;2.20;;;;;;;12.05;34.41;99107.22;4425787;32;20145;-84
2022/04/11 10:24:20;;;;;;;7.27;2.30;;;;;;;12.48;32.46;99107.47;4425846;32;20191;-84
2022/04/11 10:26:53;;;;;;;8.38;2.70;;;;;;;12.42;31.22;99112.22;4440960;32;20093;-81
2022/04/11 10:29:36;;;;;;;6.87;2.70;;;;;;;12.32;31.55;99115.41;4427518;32;20131;-84
2022/04/11 10:32:13;;;;;;;6.03;2.55;;;;;;;12.52;31.83;99106.34;4423976;32;20085;-84
2022/04/11 10:35:02;;;;;;;9.82;2.60;;;;;;;12.23;31.53;99105.34;4425891;32;20086;-82
2022/04/11 10:37:29;;;;;;;6.70;2.28;;;;;;;12.66;31.38;99099.41;4425769;32;20141;-82
2022/04/11 10:40:17;;;;;;;8.98;2.58;;;;;;;12.98;31.62;99102.81;4411966;32;20106;-83
2022/04/11 10:43:04;;;;;;;8.48;2.58;;;;;;;12.98;31.06;99103.66;4425852;32;20093;-84
2022/04/11 10:45:36;;;;;;;7.18;2.30;;;;;;;12.74;31.17;99111.22;4425781;32;20115;-84
2022/04/11 10:48:05;;;;;;;6.65;2.40;;;;;;;12.76;29.96;99117.28;4425836;32;20155;-85
2022/04/11 10:50:37;;;;;;;8.00;2.33;;;;;;;12.52;30.19;99110.78;4425003;32;20417;-84
2022/04/11 10:53:11;;;;;;;8.82;2.65;;;;;;;12.52;30.95;99116.06;4425890;32;20153;-82
2022/04/11 10:56:14;;;;;;;9.50;2.95;;;;;;;12.65;31.46;99103.84;4425336;32;20116;-85
2022/04/11 10:58:45;;;;;;;8.27;2.92;;;;;;;12.64;31.36;99111.88;4424532;32;20101;-85
2022/04/11 11:01:10;;;;;;;8.23;2.40;;;;;;;12.83;31.36;99109.84;4427220;32;20093;-83
2022/04/11 11:03:39;;;;;;;6.03;2.30;;;;;;;13.05;30.95;99096.19;4442029;32;20142;-84
2022/04/11 11:06:16;;;;;;;6.43;2.30;;;;;;;13.01;30.16;99097.31;4442750;32;20103;-85
2022/04/11 11:08:42;;;;;;;6.25;2.08;;;;;;;12.91;29.87;99094.37;4455958;32;20097;-83
2022/04/11 11:11:26;;;;;;;7.85;2.30;;;;;;;12.92;29.00;99098.72;4442582;32;20431;-83
2022/04/11 11:13:56;;;;;;;7.37;2.05;;;;;;;13.21;29.04;99092.63;4456610;32;20082;-83
2022/04/11 11:16:22;;;;;;;6.60;2.20;;;;;;;13.43;28.29;99090.41;4442604;32;20088;-83
2022/04/11 11:18:51;;;;;;;6.43;2.20;;;;;;;13.52;28.28;99094.28;4456423;32;20124;-83
2022/04/11 11:21:41;;;;;;;7.53;2.40;;;;;;;13.08;28.71;99080.16;4456037;32;20136;-82
2022/04/11 11:24:08;;;;;;;8.55;2.65;;;;;;;13.44;28.77;99075.38;4444792;32;20445;-83
2022/04/11 11:26:40;;;;;;;7.50;2.80;;;;;;;13.48;28.85;99083.06;4456523;32;20380;-83
2022/04/11 11:29:15;;;;;;;9.35;3.12;;;;;;;13.70;29.65;99089.66;4456262;32;20127;-85
2022/04/11 11:31:41;;;;;;;8.68;3.00;;;;;;;13.35;30.15;99085.59;4456214;32;20100;-83
2022/04/11 11:34:16;;;;;;;8.32;3.00;;;;;;;13.57;30.14;99087.75;4442204;32;20136;-84
2022/04/11 11:36:42;;;;;;;7.15;2.70;;;;;;;13.23;30.05;99085.44;4440675;32;20086;-82